createdAt,value
2022-12-29T00:02:06.723Z,1.73
2022-12-29T00:07:12.714Z,1.93
2022-12-29T00:12:18.171Z,1.80
2022-12-29T00:17:23.788Z,1.90
2022-12-29T00:22:46.926Z,1.77
2022-12-29T00:28:10.264Z,1.70
2022-12-29T00:33:37.323Z,2.00
2022-12-29T00:39:03.925Z,1.73
2022-12-29T00:44:11.338Z,1.60
2022-12-29T00:49:32.904Z,1.70
2022-12-29T00:54:41.179Z,1.90
2022-12-29T00:59:46.797Z,1.87
2022-12-29T01:04:54.123Z,1.93
2022-12-29T01:10:11.811Z,1.57
2022-12-29T01:15:17.574Z,1.80
2022-12-29T01:20:23.882Z,1.43
2022-12-29T01:25:29.252Z,1.37
2022-12-29T01:30:36.213Z,1.43
2022-12-29T01:35:41.725Z,1.63
2022-12-29T01:40:49.112Z,1.50
2022-12-29T01:45:56.458Z,1.70
2022-12-29T01:51:01.993Z,1.50
2022-12-29T01:56:10.672Z,1.60
2022-12-29T02:01:17.694Z,1.63
2022-12-29T02:06:33.145Z,1.80
2022-12-29T02:11:40.670Z,1.37
2022-12-29T02:17:07.399Z,1.50
2022-12-29T02:22:42.504Z,1.80
2022-12-29T02:28:12.185Z,1.80
2022-12-29T02:33:32.291Z,1.67
2022-12-29T02:38:49.479Z,1.57
2022-12-29T02:44:09.532Z,1.90
2022-12-29T02:49:17.958Z,1.67
2022-12-29T02:54:42.947Z,1.90
2022-12-29T02:59:52.110Z,1.50
2022-12-29T03:05:09.254Z,1.90
2022-12-29T03:10:17.822Z,1.80
2022-12-29T03:15:50.555Z,1.23
2022-12-29T03:21:02.030Z,1.67
2022-12-29T03:26:11.046Z,1.67
2022-12-29T03:31:18.892Z,1.27
2022-12-29T03:36:48.539Z,1.67
2022-12-29T03:41:57.471Z,1.63
2022-12-29T03:47:03.936Z,1.47
2022-12-29T03:52:09.815Z,2.00
2022-12-29T03:57:16.883Z,2.03
2022-12-29T04:02:25.195Z,1.60
2022-12-29T04:07:31.351Z,1.30
2022-12-29T04:12:37.349Z,1.63
2022-12-29T04:17:42.963Z,1.70
2022-12-29T04:22:48.627Z,1.70
2022-12-29T04:27:54.379Z,1.30
2022-12-29T04:33:20.571Z,1.60
2022-12-29T04:38:27.264Z,1.47
2022-12-29T04:43:33.034Z,1.20
2022-12-29T04:48:43.285Z,1.10
2022-12-29T04:54:05.635Z,1.60
2022-12-29T04:59:11.833Z,1.80
2022-12-29T05:04:17.381Z,1.40
2022-12-29T05:09:24.979Z,1.67
2022-12-29T05:14:30.598Z,1.80
2022-12-29T05:19:36.408Z,1.30
2022-12-29T05:24:42.395Z,1.50
2022-12-29T05:29:49.178Z,1.57
2022-12-29T05:34:54.961Z,1.40
2022-12-29T05:40:02.037Z,1.43
2022-12-29T05:45:09.367Z,1.33
2022-12-29T05:50:31.528Z,1.23
2022-12-29T05:55:46.806Z,1.47
2022-12-29T06:00:49.248Z,1.40
2022-12-29T06:05:54.858Z,1.67
2022-12-29T06:11:00.524Z,1.80
2022-12-29T06:16:06.637Z,1.43
2022-12-29T06:21:13.258Z,1.70
2022-12-29T06:26:18.860Z,1.40
2022-12-29T06:31:25.949Z,1.40
2022-12-29T06:36:31.541Z,1.37
2022-12-29T06:41:37.050Z,1.10
2022-12-29T06:46:56.547Z,1.00
2022-12-29T06:52:07.548Z,1.80
2022-12-29T06:57:10.799Z,1.33
2022-12-29T07:02:18.056Z,1.37
2022-12-29T07:07:23.796Z,1.67
2022-12-29T07:12:29.243Z,1.40
2022-12-29T07:17:34.629Z,1.50
2022-12-29T07:22:40.392Z,1.60
2022-12-29T07:27:45.923Z,1.23
2022-12-29T07:32:51.312Z,1.90
2022-12-29T07:37:56.751Z,1.63
2022-12-29T07:43:02.412Z,2.07
2022-12-29T07:48:10.823Z,1.40
2022-12-29T07:53:16.900Z,1.50
2022-12-29T07:58:22.361Z,1.50
2022-12-29T08:03:27.829Z,1.50
2022-12-29T08:08:33.427Z,1.30
2022-12-29T08:13:38.894Z,1.50
2022-12-29T08:18:44.353Z,1.57
2022-12-29T08:23:50.282Z,1.57
2022-12-29T08:28:57.400Z,1.33
2022-12-29T08:34:04.527Z,1.30
2022-12-29T08:39:10.359Z,1.43
2022-12-29T08:44:15.974Z,1.47
2022-12-29T08:49:21.634Z,1.70
2022-12-29T08:54:27.226Z,1.40
2022-12-29T08:59:33.413Z,1.77
2022-12-29T09:04:39.136Z,1.90
2022-12-29T09:09:44.583Z,1.27
2022-12-29T09:14:50.252Z,1.40
2022-12-29T09:19:55.792Z,1.20
2022-12-29T09:25:01.655Z,1.27
2022-12-29T09:30:11.119Z,1.30
2022-12-29T09:35:17.857Z,1.20
2022-12-29T09:40:35.139Z,1.60
2022-12-29T09:45:50.063Z,1.13
2022-12-29T09:51:04.438Z,1.37
2022-12-29T09:56:15.696Z,1.20
2022-12-29T10:01:36.528Z,1.90
2022-12-29T10:07:19.387Z,1.60
2022-12-29T10:12:07.721Z,1.47
2022-12-29T10:17:35.763Z,1.30
2022-12-29T10:22:50.039Z,1.10
2022-12-29T10:27:58.491Z,1.13
2022-12-29T10:33:06.976Z,1.47
2022-12-29T10:38:34.392Z,1.80
2022-12-29T10:43:47.199Z,1.27
2022-12-29T10:48:54.395Z,1.40
2022-12-29T10:54:05.607Z,1.33
2022-12-29T10:59:19.682Z,1.40
2022-12-29T11:04:55.723Z,1.40
2022-12-29T11:10:19.723Z,1.40
2022-12-29T11:15:25.573Z,1.27
2022-12-29T11:20:40.607Z,1.40
2022-12-29T11:25:46.102Z,1.10
2022-12-29T11:30:54.564Z,1.23
2022-12-29T11:36:03.493Z,1.20
2022-12-29T11:41:11.146Z,0.97
2022-12-29T11:46:22.368Z,1.10
2022-12-29T11:51:45.722Z,1.00
2022-12-29T11:56:53.722Z,1.10
2022-12-29T12:02:01.688Z,0.80
2022-12-29T12:07:22.202Z,0.83
2022-12-29T12:12:33.285Z,0.93
2022-12-29T12:17:44.709Z,1.17
2022-12-29T12:22:58.947Z,0.80
2022-12-29T12:28:16.663Z,1.00
2022-12-29T12:33:31.186Z,0.87
2022-12-29T12:38:48.299Z,0.80
2022-12-29T12:43:56.736Z,0.80
2022-12-29T12:49:33.925Z,0.80
2022-12-29T12:54:57.706Z,1.60
2022-12-29T13:00:06.616Z,1.33
2022-12-29T13:05:26.141Z,0.87
2022-12-29T13:10:33.786Z,1.07
2022-12-29T13:15:45.486Z,1.27
2022-12-29T13:21:02.885Z,1.40
2022-12-29T13:26:32.712Z,0.70
2022-12-29T13:32:08.542Z,0.93
2022-12-29T13:37:17.020Z,0.87
2022-12-29T13:42:23.309Z,1.30
2022-12-29T13:47:34.307Z,1.00
2022-12-29T13:53:19.531Z,0.77
2022-12-29T13:58:43.829Z,0.60
2022-12-29T14:03:52.833Z,0.60
2022-12-29T14:09:20.801Z,0.80
2022-12-29T14:14:29.468Z,0.80
2022-12-29T14:19:37.968Z,1.00
2022-12-29T14:24:46.769Z,0.63
2022-12-29T14:29:54.531Z,1.20
2022-12-29T14:35:02.322Z,1.00
2022-12-29T14:40:23.371Z,1.00
2022-12-29T14:45:33.623Z,1.30
2022-12-29T14:50:42.081Z,1.17
2022-12-29T14:55:59.316Z,0.93
2022-12-29T15:01:07.509Z,0.90
2022-12-29T15:06:17.142Z,0.90
2022-12-29T15:11:25.418Z,0.67
2022-12-29T15:16:38.141Z,0.93
2022-12-29T15:21:44.777Z,1.13
2022-12-29T15:26:54.112Z,0.80
2022-12-29T15:32:05.479Z,0.80
2022-12-29T15:37:11.517Z,1.10
2022-12-29T15:42:32.030Z,1.40
2022-12-29T15:47:37.628Z,1.20
2022-12-29T15:52:43.542Z,1.27
2022-12-29T15:57:49.205Z,1.60
2022-12-29T16:02:56.383Z,1.30
2022-12-29T16:08:02.430Z,1.50
2022-12-29T16:13:22.831Z,1.50
2022-12-29T16:18:31.291Z,1.47
2022-12-29T16:23:38.848Z,1.60
2022-12-29T16:28:44.894Z,1.43
2022-12-29T16:33:53.110Z,1.03
2022-12-29T16:39:24.296Z,1.30
2022-12-29T16:44:33.853Z,1.20
2022-12-29T16:49:42.153Z,1.17
2022-12-29T16:54:50.596Z,1.20
2022-12-29T16:59:59.643Z,0.90
2022-12-29T17:05:05.550Z,1.10
2022-12-29T17:10:11.605Z,0.83
2022-12-29T17:15:30.891Z,1.00
2022-12-29T17:20:36.571Z,1.40
2022-12-29T17:25:42.784Z,1.20
2022-12-29T17:30:49.292Z,1.03
2022-12-29T17:35:55.845Z,1.00
2022-12-29T17:41:01.908Z,1.00
2022-12-29T17:46:09.200Z,0.97
2022-12-29T17:51:15.397Z,0.80
2022-12-29T17:56:20.871Z,1.13
2022-12-29T18:01:31.067Z,1.00
2022-12-29T18:06:34.164Z,0.90
2022-12-29T18:11:44.699Z,1.17
2022-12-29T18:16:50.444Z,0.90
2022-12-29T18:21:55.893Z,1.20
2022-12-29T18:27:01.349Z,0.93
2022-12-29T18:32:08.215Z,0.97
2022-12-29T18:37:13.864Z,1.23
2022-12-29T18:42:19.443Z,1.00
2022-12-29T18:47:24.949Z,0.97
2022-12-29T18:52:30.327Z,1.00
2022-12-29T18:57:35.802Z,1.33
2022-12-29T19:02:41.978Z,0.97
2022-12-29T19:07:47.704Z,0.97
2022-12-29T19:12:54.704Z,0.80
2022-12-29T19:23:14.433Z,0.70
2022-12-29T19:28:28.329Z,0.83
2022-12-29T19:33:33.701Z,0.80
2022-12-29T19:38:39.100Z,0.97
2022-12-29T19:43:45.215Z,0.97
2022-12-29T19:48:51.704Z,1.30
2022-12-29T19:53:58.640Z,1.00
2022-12-29T19:59:04.194Z,1.20
2022-12-29T20:04:09.706Z,1.13
2022-12-29T20:09:15.184Z,0.87
2022-12-29T20:14:20.638Z,1.00
2022-12-29T20:19:26.183Z,0.77
2022-12-29T20:24:33.123Z,1.17
2022-12-29T20:29:41.038Z,1.47
2022-12-29T20:34:48.442Z,0.80
2022-12-29T20:39:53.971Z,1.20
2022-12-29T20:45:01.150Z,1.20
2022-12-29T20:50:07.467Z,1.00
2022-12-29T20:55:12.921Z,1.23
2022-12-29T21:00:22.598Z,1.00
2022-12-29T21:05:28.128Z,0.90
2022-12-29T21:10:33.656Z,0.97
2022-12-29T21:15:39.200Z,0.90
2022-12-29T21:20:44.723Z,1.10
2022-12-29T21:25:50.454Z,1.10
2022-12-29T21:30:55.967Z,1.63
2022-12-29T21:36:06.518Z,1.70
2022-12-29T21:41:16.242Z,1.57
2022-12-29T21:46:23.902Z,0.97
2022-12-29T21:51:47.585Z,1.00
2022-12-29T21:56:55.408Z,1.27
2022-12-29T22:02:19.604Z,1.00
2022-12-29T22:07:43.363Z,1.27
2022-12-29T22:13:02.217Z,1.00
2022-12-29T22:18:07.966Z,1.17
2022-12-29T22:23:15.237Z,1.10
2022-12-29T22:28:20.596Z,0.93
2022-12-29T22:33:26.184Z,1.20
2022-12-29T22:38:31.655Z,1.27
2022-12-29T22:43:37.045Z,1.30
2022-12-29T22:48:42.489Z,1.20
2022-12-29T22:53:50.208Z,1.30
2022-12-29T22:58:55.725Z,1.43
2022-12-29T23:04:44.332Z,1.60
2022-12-29T23:09:11.379Z,1.33
2022-12-29T23:14:19.810Z,1.80
2022-12-29T23:19:25.344Z,1.00
2022-12-29T23:24:30.878Z,1.30
2022-12-29T23:29:36.671Z,1.13
2022-12-29T23:34:42.029Z,1.00
2022-12-29T23:39:47.491Z,1.33
2022-12-29T23:44:52.896Z,1.17
2022-12-29T23:49:58.651Z,1.00
2022-12-29T23:55:05.223Z,0.70
